Time;durP1;ratioP1;P1;durP2;ratioP2;P2;SDS_P1;SDS_P2;PMS_P1;PMS_P2;Temp;Humidity;BMP_temperature;BMP_pressure;BME280_temperature;BME280_humidity;BME280_pressure;Samples;Min_cycle;Max_cycle;Signal;HPM_P1;HPM_P2
2023/12/25 00:01:34;;;;;;;2.88;2.00;;;;;;;11.73;100.00;100371.31;5086746;28;20138;-65
2023/12/25 00:04:22;;;;;;;2.00;1.88;;;;;;;11.73;100.00;100371.31;5113508;28;20081;-66
2023/12/25 00:07:11;;;;;;;4.55;2.47;;;;;;;11.71;100.00;100366.16;5063057;28;20051;-66
2023/12/25 00:09:59;;;;;;;2.60;1.95;;;;;;;11.73;100.00;100382.22;5059570;28;20074;-65
2023/12/25 00:12:47;;;;;;;2.72;1.63;;;;;;;11.74;100.00;100392.06;5089191;28;20036;-65
2023/12/25 00:15:35;;;;;;;2.88;1.60;;;;;;;11.73;100.00;100393.16;5078917;28;20066;-65
2023/12/25 00:18:23;;;;;;;3.63;1.80;;;;;;;11.72;100.00;100397.78;5092162;28;20496;-65
2023/12/25 00:21:11;;;;;;;2.00;1.80;;;;;;;11.72;100.00;100383.34;5093834;28;20044;-67
2023/12/25 00:23:59;;;;;;;2.42;1.95;;;;;;;11.71;100.00;100389.88;5079592;28;20093;-67
2023/12/25 00:26:47;;;;;;;3.42;1.73;;;;;;;11.71;100.00;100368.06;5078696;28;20083;-66
2023/12/25 00:29:35;;;;;;;1.80;1.52;;;;;;;11.71;100.00;100357.97;5106672;28;20039;-66
2023/12/25 00:32:23;;;;;;;2.38;1.90;;;;;;;11.70;100.00;100369.16;5099766;28;20044;-66
2023/12/25 00:35:12;;;;;;;3.00;1.90;;;;;;;11.70;100.00;100363.72;5100527;28;20052;-66
2023/12/25 00:38:00;;;;;;;2.00;1.80;;;;;;;11.70;100.00;100363.72;5093122;28;20401;-66
2023/12/25 00:40:48;;;;;;;2.33;2.00;;;;;;;11.69;100.00;100356.63;5114109;28;20050;-66
2023/12/25 00:43:36;;;;;;;1.90;1.80;;;;;;;11.70;100.00;100355.53;5114043;28;20040;-67
2023/12/25 00:46:24;;;;;;;2.15;1.98;;;;;;;11.69;100.00;100373.00;5077134;28;20067;-64
2023/12/25 00:49:14;;;;;;;2.30;2.10;;;;;;;11.68;100.00;100363.16;5117115;28;20060;-66
2023/12/25 00:52:02;;;;;;;2.85;2.40;;;;;;;11.67;100.00;100384.19;5101577;28;20067;-65
2023/12/25 00:54:50;;;;;;;2.92;2.53;;;;;;;11.69;100.00;100386.66;5073637;28;20112;-67
2023/12/25 00:57:38;;;;;;;2.83;2.30;;;;;;;11.69;100.00;100398.38;5094530;28;20067;-66
2023/12/25 01:00:26;;;;;;;4.10;2.30;;;;;;;11.69;100.00;100392.91;5091336;28;20044;-64
2023/12/25 01:03:16;;;;;;;3.65;2.28;;;;;;;11.71;100.00;100401.63;5087406;28;20055;-65
2023/12/25 01:06:04;;;;;;;3.72;2.40;;;;;;;11.70;100.00;100405.44;5069490;28;20040;-65
2023/12/25 01:08:53;;;;;;;5.05;2.50;;;;;;;11.71;100.00;100400.81;5060709;28;20416;-65
2023/12/25 01:11:42;;;;;;;2.55;1.90;;;;;;;11.71;100.00;100400.81;5091088;28;20054;-66
2023/12/25 01:14:30;;;;;;;4.50;2.55;;;;;;;11.73;100.00;100409.53;5098313;28;20388;-65
2023/12/25 01:17:18;;;;;;;2.67;2.20;;;;;;;11.71;100.00;100407.09;5097786;28;20046;-67
2023/12/25 01:20:06;;;;;;;4.00;2.20;;;;;;;11.73;100.00;100412.25;5081239;28;20412;-66
2023/12/25 01:22:54;;;;;;;3.97;2.50;;;;;;;11.73;100.00;100410.34;5072849;28;20040;-67
2023/12/25 01:25:42;;;;;;;4.35;2.55;;;;;;;11.74;100.00;100408.44;5093630;28;20048;-68
2023/12/25 01:28:30;;;;;;;4.70;2.30;;;;;;;11.73;100.00;100417.72;5057680;28;20131;-67
2023/12/25 01:31:18;;;;;;;3.65;2.25;;;;;;;11.75;100.00;100406.53;5068340;28;20121;-67
2023/12/25 01:34:06;;;;;;;5.18;2.42;;;;;;;11.77;100.00;100423.44;5112289;28;20051;-67
2023/12/25 01:36:54;;;;;;;4.20;2.00;;;;;;;11.77;100.00;100426.16;5097297;28;20055;-67
2023/12/25 01:39:42;;;;;;;4.80;2.60;;;;;;;11.76;100.00;100428.06;5071723;28;20123;-67
2023/12/25 01:42:30;;;;;;;5.82;2.20;;;;;;;11.79;100.00;100437.59;5092761;28;20050;-67
2023/12/25 01:45:18;;;;;;;3.72;1.92;;;;;;;11.79;100.00;100427.50;5098222;28;20047;-66
2023/12/25 01:48:07;;;;;;;3.97;2.30;;;;;;;11.79;100.00;100408.38;5081724;28;20048;-67
2023/12/25 01:51:00;;;;;;;5.03;2.30;;;;;;;11.80;100.00;100420.13;5044734;28;20404;-66
2023/12/25 01:53:49;;;;;;;4.78;2.03;;;;;;;11.81;100.00;100419.84;5078060;28;20044;-66
2023/12/25 01:56:37;;;;;;;4.07;2.35;;;;;;;11.80;100.00;100434.56;5062432;28;20079;-66
2023/12/25 01:59:28;;;;;;;6.40;2.88;;;;;;;11.79;100.00;100443.88;5077518;28;20052;-67
2023/12/25 02:02:18;;;;;;;4.38;2.28;;;;;;;11.78;100.00;100444.97;5051827;28;20053;-67
2023/12/25 02:05:08;;;;;;;3.42;2.20;;;;;;;11.78;100.00;100442.22;5092621;28;20048;-67
2023/12/25 02:07:57;;;;;;;4.45;2.30;;;;;;;11.79;100.00;100437.59;5075249;28;20052;-67
2023/12/25 02:10:45;;;;;;;5.40;2.88;;;;;;;11.79;100.00;100432.16;5079581;28;20094;-67
2023/12/25 02:13:33;;;;;;;6.03;2.67;;;;;;;11.79;100.00;100441.16;5090370;28;21350;-68
2023/12/25 02:16:24;;;;;;;3.10;1.95;;;;;;;11.80;100.00;100442.75;5083362;28;20054;-67
2023/12/25 02:19:21;;;;;;;5.60;2.35;;;;;;;11.80;100.00;100452.88;5066733;28;20086;-65
2023/12/25 02:22:10;;;;;;;4.03;2.25;;;;;;;11.82;100.00;100456.94;5059283;28;20506;-66
2023/12/25 02:25:10;;;;;;;5.93;2.95;;;;;;;11.81;100.00;100455.34;5077944;28;20059;-67
2023/12/25 02:27:59;;;;;;;5.50;2.67;;;;;;;11.83;100.00;100460.47;5061237;28;20044;-65
2023/12/25 02:30:47;;;;;;;7.10;3.00;;;;;;;11.83;100.00;100453.09;5051765;28;20163;-66
2023/12/25 02:33:35;;;;;;;5.88;2.88;;;;;;;11.83;100.00;100455.03;5047222;28;20075;-66
2023/12/25 02:36:23;;;;;;;8.43;2.80;;;;;;;11.85;100.00;100461.81;5078189;28;20048;-66
2023/12/25 02:39:12;;;;;;;4.43;2.70;;;;;;;11.84;100.00;100457.47;5080397;28;20048;-67
2023/12/25 02:42:00;;;;;;;6.38;2.70;;;;;;;11.84;100.00;100460.22;5095348;28;20048;-67
2023/12/25 02:44:48;;;;;;;8.25;2.50;;;;;;;11.85;100.00;100471.94;5095558;28;20415;-67
2023/12/25 02:47:36;;;;;;;6.85;2.40;;;;;;;11.86;100.00;100459.94;5091015;28;20040;-66
2023/12/25 02:50:24;;;;;;;5.13;2.35;;;;;;;11.87;100.00;100453.41;5081254;28;20256;-65
2023/12/25 02:53:12;;;;;;;5.40;2.60;;;;;;;11.87;100.00;100461.59;5079117;28;20514;-65
2023/12/25 02:56:00;;;;;;;7.53;3.03;;;;;;;11.85;100.00;100450.91;5079885;28;20148;-65
2023/12/25 02:58:48;;;;;;;6.30;2.80;;;;;;;11.86;100.00;100463.47;5057213;28;20095;-66
2023/12/25 03:01:36;;;;;;;4.75;2.28;;;;;;;11.88;100.00;100460.47;5059848;28;20041;-67
2023/12/25 03:04:24;;;;;;;6.75;2.63;;;;;;;11.89;100.00;100462.13;5094315;28;20051;-65
2023/12/25 03:07:12;;;;;;;4.70;2.40;;;;;;;11.89;100.00;100456.66;5079917;28;20131;-66
2023/12/25 03:10:00;;;;;;;5.10;2.42;;;;;;;11.91;100.00;100466.19;5093971;28;20048;-66
2023/12/25 03:12:48;;;;;;;6.13;2.40;;;;;;;11.91;100.00;100465.38;5080598;28;20105;-66
2023/12/25 03:15:36;;;;;;;4.05;2.28;;;;;;;11.91;100.00;100471.66;5093631;28;20044;-65
2023/12/25 03:18:24;;;;;;;6.72;2.60;;;;;;;11.91;100.00;100455.28;5079600;28;20534;-67
2023/12/25 03:21:13;;;;;;;5.30;2.10;;;;;;;11.92;100.00;100472.47;5093222;28;20054;-67
2023/12/25 03:24:01;;;;;;;4.13;2.20;;;;;;;11.92;100.00;100467.00;5067441;28;20127;-66
2023/12/25 03:26:50;;;;;;;6.18;2.55;;;;;;;11.94;100.00;100471.06;5074017;28;20174;-66
2023/12/25 03:29:38;;;;;;;5.97;2.58;;;;;;;11.94;100.00;100465.59;5076901;28;20411;-66
2023/12/25 03:32:26;;;;;;;7.70;2.50;;;;;;;11.96;100.00;100472.72;5093506;28;20056;-66
2023/12/25 03:35:14;;;;;;;3.88;2.65;;;;;;;11.93;100.00;100466.72;5074456;28;20063;-65
2023/12/25 03:38:03;;;;;;;5.25;2.40;;;;;;;11.92;100.00;100462.34;5080278;28;20519;-65
2023/12/25 03:40:53;;;;;;;5.28;2.60;;;;;;;11.93;100.00;100483.09;5073107;28;20071;-66
2023/12/25 03:43:41;;;;;;;5.53;2.40;;;;;;;11.94;100.00;100483.91;5087357;28;20109;-67
2023/12/25 03:46:29;;;;;;;4.50;2.63;;;;;;;11.96;100.00;100494.56;5060729;28;20056;-66
2023/12/25 03:49:17;;;;;;;6.10;2.50;;;;;;;11.94;100.00;100471.06;5089555;28;20412;-66
2023/12/25 03:52:05;;;;;;;5.70;2.63;;;;;;;11.94;100.00;100479.25;5078800;28;20087;-65
2023/12/25 03:54:53;;;;;;;6.18;2.70;;;;;;;11.96;100.00;100494.56;5078862;28;20118;-65
2023/12/25 03:57:42;;;;;;;5.57;2.60;;;;;;;11.96;100.00;100491.81;5059568;28;20493;-66
2023/12/25 04:00:30;;;;;;;7.13;2.90;;;;;;;11.96;100.00;100489.09;5059681;28;20040;-65
2023/12/25 04:03:18;;;;;;;5.03;2.83;;;;;;;11.94;100.00;100487.44;5073203;28;20036;-66
2023/12/25 04:06:06;;;;;;;6.22;3.10;;;;;;;11.91;100.00;100489.94;5059969;28;20045;-66
2023/12/25 04:08:55;;;;;;;4.93;2.85;;;;;;;11.90;100.00;100489.13;5020417;28;20041;-66
2023/12/25 04:11:43;;;;;;;3.55;2.70;;;;;;;11.89;100.00;100494.88;5072846;28;20057;-66
2023/12/25 04:14:32;;;;;;;3.22;2.55;;;;;;;11.88;100.00;100488.59;5059217;28;20057;-68
2023/12/25 04:17:20;;;;;;;3.60;2.55;;;;;;;11.88;100.00;100488.59;5074657;28;20060;-68
2023/12/25 04:20:08;;;;;;;4.32;3.10;;;;;;;11.86;100.00;100485.31;5058251;28;20131;-68
2023/12/25 04:22:56;;;;;;;3.40;3.10;;;;;;;11.82;100.00;100484.25;5074162;28;20139;-67
2023/12/25 04:25:44;;;;;;;6.18;3.40;;;;;;;11.81;100.00;100479.91;5073815;28;20103;-68
2023/12/25 04:28:32;;;;;;;3.95;3.15;;;;;;;11.81;100.00;100477.16;5077040;28;20044;-68
2023/12/25 04:31:20;;;;;;;4.72;3.20;;;;;;;11.80;100.00;100471.97;5092824;28;20052;-67
2023/12/25 04:34:09;;;;;;;5.05;3.58;;;;;;;11.79;100.00;100473.91;5077776;28;20625;-68
2023/12/25 04:36:57;;;;;;;5.35;3.60;;;;;;;11.80;100.00;100475.53;5077817;28;20043;-68
2023/12/25 04:39:45;;;;;;;5.85;3.78;;;;;;;11.80;100.00;100467.31;5079661;28;20044;-68
2023/12/25 04:42:33;;;;;;;5.05;3.50;;;;;;;11.79;100.00;100471.16;5064205;28;20047;-67
2023/12/25 04:45:21;;;;;;;3.90;3.50;;;;;;;11.76;100.00;100477.22;5080563;28;20036;-67
2023/12/25 04:48:10;;;;;;;6.93;4.50;;;;;;;11.76;100.00;100470.91;5092209;28;20045;-68
2023/12/25 04:51:00;;;;;;;5.55;4.10;;;;;;;11.74;100.00;100463.03;5094083;28;20078;-68
2023/12/25 04:53:48;;;;;;;5.68;4.25;;;;;;;11.76;100.00;100458.09;5099167;28;20047;-68
2023/12/25 04:56:37;;;;;;;7.03;4.50;;;;;;;11.75;100.00;100455.66;5098317;28;20140;-68
2023/12/25 04:59:27;;;;;;;5.72;4.28;;;;;;;11.73;100.00;100461.38;5087240;28;20043;-66
2023/12/25 05:02:15;;;;;;;7.13;4.43;;;;;;;11.70;100.00;100468.22;5099660;28;20407;-66
2023/12/25 05:05:03;;;;;;;7.07;4.40;;;;;;;11.70;100.00;100462.75;5118754;28;20044;-66
2023/12/25 05:07:52;;;;;;;7.00;4.13;;;;;;;11.70;100.00;100453.78;5106976;28;20062;-65
2023/12/25 05:10:41;;;;;;;4.85;3.72;;;;;;;11.68;100.00;100456.78;5104725;28;20047;-64
2023/12/25 05:13:30;;;;;;;6.35;4.00;;;;;;;11.68;100.00;100470.41;5080009;28;20050;-65
2023/12/25 05:16:18;;;;;;;4.05;3.30;;;;;;;11.67;100.00;100466.06;5085374;28;20043;-67
2023/12/25 05:19:06;;;;;;;3.53;2.70;;;;;;;11.67;100.00;100466.06;5092080;28;20044;-63
2023/12/25 05:21:54;;;;;;;2.85;2.60;;;;;;;11.62;100.00;100462.56;5066808;28;20040;-65
2023/12/25 05:24:42;;;;;;;2.58;1.80;;;;;;;11.58;100.00;100477.88;5078830;28;20047;-64
2023/12/25 05:27:30;;;;;;;2.50;1.70;;;;;;;11.52;100.00;100468.91;5064574;28;20189;-65
2023/12/25 05:30:18;;;;;;;1.50;1.40;;;;;;;11.47;100.00;100471.66;5080734;28;20040;-66
2023/12/25 05:33:06;;;;;;;4.80;1.42;;;;;;;11.45;100.00;100469.22;5080339;28;20040;-65
2023/12/25 05:35:54;;;;;;;1.63;1.30;;;;;;;11.46;100.00;100470.84;5092567;28;20040;-66
2023/12/25 05:38:43;;;;;;;1.95;1.45;;;;;;;11.47;100.00;100467.03;5078256;28;20393;-64
2023/12/25 05:41:43;;;;;;;5.35;2.22;;;;;;;11.47;100.00;100461.56;5091466;28;20050;-64
2023/12/25 05:44:31;;;;;;;3.35;1.88;;;;;;;11.49;100.00;100467.53;5077051;28;20040;-66
2023/12/25 05:47:19;;;;;;;2.65;2.42;;;;;;;11.50;100.00;100469.19;5058045;28;20041;-65
2023/12/25 05:50:10;;;;;;;2.92;2.58;;;;;;;11.48;100.00;100457.75;5085881;28;20044;-66
2023/12/25 05:52:58;;;;;;;2.90;2.50;;;;;;;11.50;100.00;100466.47;5086923;28;20097;-65
2023/12/25 05:55:46;;;;;;;2.55;2.35;;;;;;;11.50;100.00;100466.47;5057920;28;20040;-66
2023/12/25 05:58:34;;;;;;;2.80;2.30;;;;;;;11.49;100.00;100470.25;5056951;28;20087;-66
2023/12/25 06:01:22;;;;;;;3.30;2.45;;;;;;;11.50;100.00;100482.81;5056901;28;20040;-66
2023/12/25 06:04:11;;;;;;;2.45;2.03;;;;;;;11.48;100.00;100476.03;5082781;28;20040;-66
2023/12/25 06:07:00;;;;;;;2.33;2.15;;;;;;;11.47;100.00;100472.50;5091611;28;20048;-66
2023/12/25 06:09:48;;;;;;;2.38;2.08;;;;;;;11.48;100.00;100476.84;5080671;28;20126;-64
2023/12/25 06:12:36;;;;;;;2.92;2.00;;;;;;;11.49;100.00;100462.09;5097168;28;20048;-65
2023/12/25 06:15:24;;;;;;;1.88;1.73;;;;;;;11.48;100.00;100468.66;5078607;28;20044;-65
2023/12/25 06:18:12;;;;;;;1.90;1.77;;;;;;;11.47;100.00;100471.66;5083825;28;20185;-65
2023/12/25 06:21:00;;;;;;;3.30;2.05;;;;;;;11.47;100.00;100456.13;5099477;28;20079;-65
2023/12/25 06:23:48;;;;;;;3.42;1.63;;;;;;;11.46;100.00;100470.84;5111909;28;20043;-66
2023/12/25 06:26:36;;;;;;;1.80;1.70;;;;;;;11.46;100.00;100479.03;5043385;28;20052;-65
2023/12/25 06:29:24;;;;;;;1.80;1.70;;;;;;;11.45;100.00;100469.22;5071186;28;20045;-66
2023/12/25 06:32:13;;;;;;;2.55;2.00;;;;;;;11.43;100.00;100482.31;5056890;28;20102;-66
2023/12/25 06:35:01;;;;;;;2.25;1.90;;;;;;;11.44;100.00;100500.31;5080589;28;20048;-65
2023/12/25 06:37:49;;;;;;;1.70;1.60;;;;;;;11.40;100.00;100512.91;5091566;28;20045;-67
2023/12/25 06:40:37;;;;;;;0.77;0.77;;;;;;;11.20;100.00;100515.72;5091266;28;20055;-67
2023/12/25 06:43:25;;;;;;;5.50;2.05;;;;;;;11.09;100.00;100510.31;5055906;28;20119;-69
2023/12/25 06:46:13;;;;;;;1.45;1.00;;;;;;;10.90;100.00;100506.56;5056584;28;20076;-66
2023/12/25 06:49:00;;;;;;;1.02;0.93;;;;;;;10.83;100.00;100506.88;5057681;28;20193;-66
2023/12/25 06:51:51;;;;;;;3.83;1.50;;;;;;;10.76;100.00;100532.78;5072165;28;20079;-66
2023/12/25 06:54:39;;;;;;;4.63;1.77;;;;;;;10.70;100.00;100534.69;5050943;28;20055;-67
2023/12/25 06:57:27;;;;;;;4.88;1.30;;;;;;;10.68;100.00;100530.59;5095121;28;20060;-67
2023/12/25 07:00:16;;;;;;;8.02;1.60;;;;;;;10.66;100.00;100539.88;5095794;28;20044;-68
2023/12/25 07:03:04;;;;;;;2.15;1.30;;;;;;;10.64;100.00;100531.16;5080590;28;20040;-65
2023/12/25 07:05:52;;;;;;;2.70;1.13;;;;;;;10.63;100.00;100532.28;5096038;28;20067;-67
2023/12/25 07:08:40;;;;;;;4.35;1.48;;;;;;;10.58;100.00;100537.72;5096106;28;20040;-66
2023/12/25 07:11:28;;;;;;;2.63;1.50;;;;;;;10.54;100.00;100525.75;5096043;28;20405;-67
2023/12/25 07:14:16;;;;;;;4.15;1.70;;;;;;;10.52;100.00;100530.63;5093980;28;20036;-65
2023/12/25 07:17:07;;;;;;;4.00;1.67;;;;;;;10.53;100.00;100529.53;5080098;28;20464;-65
2023/12/25 07:19:55;;;;;;;3.75;1.60;;;;;;;10.54;100.00;100541.28;5094843;28;20403;-66
2023/12/25 07:22:43;;;;;;;6.15;1.67;;;;;;;10.54;100.00;100541.28;5093625;28;20040;-66
2023/12/25 07:25:31;;;;;;;3.92;1.85;;;;;;;10.50;100.00;100534.72;5094106;28;20043;-70
2023/12/25 07:28:19;;;;;;;3.53;1.52;;;;;;;10.51;100.00;100558.97;5060094;28;20074;-65
2023/12/25 07:31:07;;;;;;;4.47;1.38;;;;;;;10.49;100.00;100555.72;5087037;28;20119;-68
2023/12/25 07:33:55;;;;;;;3.53;1.52;;;;;;;10.48;100.00;100559.50;5058287;28;20048;-67
2023/12/25 07:36:43;;;;;;;3.25;1.40;;;;;;;10.49;100.00;100557.63;5045562;28;20055;-66
2023/12/25 07:39:31;;;;;;;3.47;1.45;;;;;;;10.52;100.00;100563.34;5045831;28;20040;-67
2023/12/25 07:42:19;;;;;;;3.60;1.45;;;;;;;10.54;100.00;100568.50;5068377;28;20079;-66
2023/12/25 07:45:08;;;;;;;3.90;1.40;;;;;;;10.53;100.00;100562.22;5084997;28;20586;-66
2023/12/25 07:48:11;;;;;;;1.80;1.30;;;;;;;10.51;100.00;100553.53;4918468;28;10000785;-68
2023/12/25 07:50:59;;;;;;;3.85;1.60;;;;;;;10.51;100.00;100556.25;5089603;28;20562;-67
2023/12/25 07:53:47;;;;;;;1.38;1.00;;;;;;;10.51;100.00;100563.59;5062261;28;20048;-67
2023/12/25 07:56:36;;;;;;;2.72;1.35;;;;;;;10.50;100.00;100562.78;5074839;28;20052;-67
2023/12/25 07:59:24;;;;;;;3.60;1.50;;;;;;;10.49;100.00;100561.16;5070856;28;20638;-67
2023/12/25 08:02:12;;;;;;;1.83;1.25;;;;;;;10.49;100.00;100577.50;5055927;28;20050;-67
2023/12/25 08:05:00;;;;;;;3.72;1.25;;;;;;;10.50;100.00;100572.88;5080376;28;20095;-69
2023/12/25 08:07:48;;;;;;;2.95;1.00;;;;;;;10.48;100.00;100577.78;5087903;28;20044;-67
2023/12/25 08:10:37;;;;;;;1.77;1.10;;;;;;;10.48;100.00;100575.03;5089701;28;20044;-68
2023/12/25 08:13:25;;;;;;;5.03;1.50;;;;;;;10.50;100.00;100579.13;5054966;28;20144;-68
2023/12/25 08:16:13;;;;;;;4.85;1.25;;;;;;;10.52;100.00;100578.88;5075289;28;20139;-67
2023/12/25 08:19:01;;;;;;;4.53;1.38;;;;;;;10.53;100.00;100575.84;5075092;28;20411;-67
2023/12/25 08:21:49;;;;;;;3.30;1.42;;;;;;;10.52;100.00;100584.31;5091024;28;20044;-67
2023/12/25 08:24:37;;;;;;;3.92;1.33;;;;;;;10.47;100.00;100585.13;5074912;28;20044;-68
2023/12/25 08:27:25;;;;;;;3.42;1.20;;;;;;;10.41;100.00;100592.50;5090819;28;20438;-67
2023/12/25 08:30:15;;;;;;;2.08;1.40;;;;;;;10.39;100.00;100593.81;5075634;28;20504;-68
2023/12/25 08:33:03;;;;;;;3.92;1.35;;;;;;;10.43;100.00;100605.81;5079787;28;20127;-68
2023/12/25 08:35:52;;;;;;;2.92;1.20;;;;;;;10.45;100.00;100598.19;5053336;28;20044;-67
2023/12/25 08:38:40;;;;;;;3.25;1.33;;;;;;;10.49;100.00;100593.84;5088228;28;20047;-66
2023/12/25 08:41:28;;;;;;;2.75;1.40;;;;;;;10.50;100.00;100595.47;5074222;28;20530;-67
2023/12/25 08:44:16;;;;;;;1.63;1.38;;;;;;;10.50;100.00;100606.38;5089444;28;20492;-67
2023/12/25 08:47:04;;;;;;;2.88;1.40;;;;;;;10.49;100.00;100602.03;5068391;28;20040;-69
2023/12/25 08:49:52;;;;;;;2.45;1.30;;;;;;;10.49;100.00;100610.19;5089336;28;20044;-66
2023/12/25 08:52:40;;;;;;;3.58;1.30;;;;;;;10.53;100.00;100616.72;5057588;28;20056;-67
2023/12/25 08:55:28;;;;;;;2.13;1.38;;;;;;;10.51;100.00;100616.19;5055384;28;20053;-67
2023/12/25 08:58:17;;;;;;;2.20;1.27;;;;;;;10.50;100.00;100617.25;5073136;28;20089;-67
2023/12/25 09:01:06;;;;;;;4.07;1.20;;;;;;;10.51;100.00;100618.06;5092862;28;20040;-67
2023/12/25 09:03:54;;;;;;;4.28;1.63;;;;;;;10.50;100.00;100611.81;5094755;28;20040;-67
2023/12/25 09:06:42;;;;;;;4.13;1.30;;;;;;;10.46;100.00;100616.16;5081611;28;20178;-66
2023/12/25 09:09:30;;;;;;;0.75;0.75;;;;;;;10.40;100.00;100622.72;5092195;28;20519;-66
2023/12/25 09:12:18;;;;;;;3.10;1.30;;;;;;;10.42;100.00;100615.09;5072399;28;20056;-67
2023/12/25 09:15:07;;;;;;;3.40;1.50;;;;;;;10.42;100.00;100629.53;5089784;28;20044;-66
2023/12/25 09:17:56;;;;;;;2.40;1.00;;;;;;;10.44;100.00;100632.00;5089639;28;20550;-67
2023/12/25 09:20:44;;;;;;;2.42;1.02;;;;;;;10.42;100.00;100639.59;5093178;28;20124;-67
2023/12/25 09:23:32;;;;;;;1.92;1.15;;;;;;;10.40;100.00;100655.41;5082371;28;20044;-65
2023/12/25 09:26:24;;;;;;;3.22;1.30;;;;;;;10.40;100.00;100649.94;5109093;28;20051;-64
2023/12/25 09:29:13;;;;;;;1.30;0.75;;;;;;;10.41;100.00;100667.91;5099781;28;20063;-67
2023/12/25 09:32:02;;;;;;;1.70;1.15;;;;;;;10.40;100.00;100671.75;5077680;28;20040;-68
2023/12/25 09:34:50;;;;;;;3.63;1.50;;;;;;;10.42;100.00;100685.91;5106625;28;20107;-63
2023/12/25 09:37:43;;;;;;;2.10;1.00;;;;;;;10.39;100.00;100679.09;5104532;28;20068;-67
2023/12/25 09:40:31;;;;;;;2.65;1.40;;;;;;;10.39;100.00;100680.97;5089290;28;20047;-67
2023/12/25 09:43:20;;;;;;;2.95;1.15;;;;;;;10.42;100.00;100683.19;5082085;28;20142;-67
2023/12/25 09:46:12;;;;;;;5.40;1.50;;;;;;;10.39;100.00;100679.09;5101663;28;20395;-67
2023/12/25 09:49:00;;;;;;;3.95;1.73;;;;;;;10.40;100.00;100674.47;5068332;28;20170;-67
2023/12/25 09:51:49;;;;;;;3.20;1.20;;;;;;;10.40;100.00;100655.41;5088161;28;20502;-67
2023/12/25 09:54:37;;;;;;;3.85;1.30;;;;;;;10.42;100.00;100664.13;5044796;28;20079;-67
2023/12/25 09:57:26;;;;;;;3.47;1.30;;;;;;;10.42;100.00;100656.75;5059920;28;20056;-67
2023/12/25 10:00:15;;;;;;;2.92;1.40;;;;;;;10.43;100.00;100655.66;5057642;28;20127;-68
2023/12/25 10:03:03;;;;;;;2.83;1.33;;;;;;;10.43;100.00;100661.09;5043114;28;20579;-67
2023/12/25 10:05:51;;;;;;;3.53;1.48;;;;;;;10.44;100.00;100659.22;5065366;28;20121;-68
2023/12/25 10:08:40;;;;;;;1.42;1.10;;;;;;;10.46;100.00;100651.56;5075267;28;20052;-67
2023/12/25 10:11:29;;;;;;;4.10;1.65;;;;;;;10.47;100.00;100661.41;5057312;28;20487;-67
2023/12/25 10:14:17;;;;;;;2.42;1.38;;;;;;;10.47;100.00;100658.69;5075612;28;20048;-67
2023/12/25 10:17:05;;;;;;;4.05;1.67;;;;;;;10.45;100.00;100669.03;5090175;28;20521;-67
2023/12/25 10:19:54;;;;;;;4.55;1.98;;;;;;;10.40;100.00;100679.91;5073069;28;20044;-66
2023/12/25 10:22:43;;;;;;;2.40;1.33;;;;;;;10.39;100.00;100680.97;5091982;28;20090;-67
2023/12/25 10:25:31;;;;;;;2.83;1.58;;;;;;;10.38;100.00;100682.91;5077405;28;20057;-67
2023/12/25 10:28:19;;;;;;;3.67;2.60;;;;;;;10.34;100.00;100680.97;5076546;28;20070;-66
2023/12/25 10:31:10;;;;;;;3.20;1.40;;;;;;;10.31;100.00;100676.09;5079795;28;20044;-66
2023/12/25 10:33:58;;;;;;;2.78;1.50;;;;;;;10.29;100.00;100675.53;5094925;28;20136;-67
2023/12/25 10:36:52;;;;;;;4.45;1.70;;;;;;;10.26;100.00;100690.47;5080966;28;20040;-66
2023/12/25 10:39:40;;;;;;;3.00;1.80;;;;;;;10.28;100.00;100691.06;5077835;28;20056;-66
2023/12/25 10:42:28;;;;;;;5.93;2.15;;;;;;;10.33;100.00;100684.81;5084245;28;20048;-68
2023/12/25 10:45:22;;;;;;;3.53;1.52;;;;;;;10.32;100.00;100686.72;5076306;28;20040;-65
2023/12/25 10:48:11;;;;;;;4.78;2.20;;;;;;;10.30;100.00;100669.81;5074507;28;20477;-67
2023/12/25 10:51:00;;;;;;;4.53;1.85;;;;;;;10.29;100.00;100664.63;5085449;28;20044;-66
2023/12/25 10:53:50;;;;;;;4.90;1.85;;;;;;;10.29;100.00;100664.63;5080690;28;20046;-67
2023/12/25 10:56:40;;;;;;;5.97;1.98;;;;;;;10.31;100.00;100667.91;5081411;28;20052;-66
2023/12/25 10:59:32;;;;;;;3.22;1.63;;;;;;;10.31;100.00;100657.81;5095637;28;20423;-68
2023/12/25 11:02:20;;;;;;;4.38;1.67;;;;;;;10.34;100.00;100661.91;5080780;28;20074;-66
2023/12/25 11:05:08;;;;;;;2.65;1.40;;;;;;;10.31;100.00;100667.91;5080644;28;20484;-65
2023/12/25 11:07:58;;;;;;;4.97;2.17;;;;;;;10.29;100.00;100665.44;5080708;28;20036;-65
2023/12/25 11:10:46;;;;;;;3.22;1.67;;;;;;;10.27;100.00;100683.13;5077652;28;20064;-66
2023/12/25 11:13:34;;;;;;;5.25;1.85;;;;;;;10.26;100.00;100676.03;5116508;28;20116;-66
2023/12/25 11:16:22;;;;;;;5.43;1.88;;;;;;;10.22;100.00;100692.09;5101248;28;20040;-66
2023/12/25 11:19:10;;;;;;;7.90;2.05;;;;;;;10.20;100.00;100691.56;5099189;28;20051;-67
2023/12/25 11:21:59;;;;;;;4.72;1.70;;;;;;;10.20;100.00;100689.66;5096896;28;20061;-67
2023/12/25 11:24:47;;;;;;;6.15;2.15;;;;;;;10.19;100.00;100688.00;5080583;28;20504;-66
2023/12/25 11:27:36;;;;;;;5.45;2.00;;;;;;;10.18;100.00;100691.00;5095255;28;20076;-66
2023/12/25 11:30:25;;;;;;;6.30;1.95;;;;;;;10.16;100.00;100685.81;5094757;28;20047;-66
2023/12/25 11:33:13;;;;;;;5.43;2.30;;;;;;;10.19;100.00;100679.00;5073990;28;20076;-66
2023/12/25 11:36:12;;;;;;;8.02;2.42;;;;;;;10.19;100.00;100684.47;5072485;28;20044;-67
2023/12/25 11:39:00;;;;;;;3.20;1.65;;;;;;;10.17;100.00;100686.63;5073154;28;20041;-67
2023/12/25 11:41:49;;;;;;;5.50;1.70;;;;;;;10.19;100.00;100690.72;5082697;28;20032;-66
2023/12/25 11:44:38;;;;;;;3.90;1.67;;;;;;;10.20;100.00;100684.19;5094777;28;20105;-67
2023/12/25 11:47:39;;;;;;;6.30;2.00;;;;;;;10.21;100.00;100680.38;5094595;28;20048;-66
2023/12/25 11:50:28;;;;;;;5.25;1.80;;;;;;;10.18;100.00;100691.81;5093289;28;20043;-65
2023/12/25 11:53:36;;;;;;;4.70;1.85;;;;;;;10.17;100.00;100690.19;5078185;28;20044;-66
2023/12/25 11:56:24;;;;;;;4.47;1.35;;;;;;;10.16;100.00;100685.81;5094259;28;20162;-66
2023/12/25 11:59:13;;;;;;;5.60;1.80;;;;;;;10.16;100.00;100691.25;5079533;28;20492;-66
2023/12/25 12:02:06;;;;;;;3.67;1.83;;;;;;;10.17;100.00;100690.19;5087653;28;20046;-66
2023/12/25 12:04:54;;;;;;;2.05;1.25;;;;;;;10.17;100.00;100687.47;5099360;28;20085;-66
2023/12/25 12:07:43;;;;;;;2.55;1.38;;;;;;;10.12;100.00;100692.88;5099994;28;20062;-66
2023/12/25 12:10:31;;;;;;;5.22;2.10;;;;;;;10.10;100.00;100678.75;5096531;28;20063;-67
2023/12/25 12:13:19;;;;;;;3.97;1.55;;;;;;;10.11;100.00;100688.53;5082873;28;20039;-68
2023/12/25 12:16:07;;;;;;;2.97;1.80;;;;;;;10.14;100.00;100685.25;5045157;28;20212;-66
2023/12/25 12:18:55;;;;;;;3.53;1.52;;;;;;;10.14;100.00;100677.09;5073884;28;20051;-65
2023/12/25 12:21:43;;;;;;;3.03;1.50;;;;;;;10.12;100.00;100676.53;5084702;28;20040;-67
2023/12/25 12:24:31;;;;;;;5.30;2.08;;;;;;;10.10;100.00;100684.19;5078831;28;20051;-66
2023/12/25 12:27:20;;;;;;;2.92;1.40;;;;;;;10.09;100.00;100674.38;5093532;28;20195;-65
2023/12/25 12:30:09;;;;;;;4.63;1.92;;;;;;;10.09;100.00;100668.91;5093688;28;20114;-67
2023/12/25 12:32:57;;;;;;;4.55;2.10;;;;;;;10.15;100.00;100654.25;5078330;28;20040;-69
2023/12/25 12:35:49;;;;;;;4.25;2.20;;;;;;;10.20;100.00;100662.41;5079779;28;20083;-66
2023/12/25 12:38:41;;;;;;;3.30;1.70;;;;;;;10.19;100.00;100659.97;5079564;28;20047;-67
2023/12/25 12:41:29;;;;;;;3.55;1.90;;;;;;;10.23;100.00;100666.50;5103315;28;20050;-67
2023/12/25 12:44:17;;;;;;;2.97;1.50;;;;;;;10.27;100.00;100669.50;5113773;28;20070;-66
2023/12/25 12:47:07;;;;;;;2.63;1.45;;;;;;;10.29;100.00;100670.09;5113676;28;20046;-66
2023/12/25 12:49:56;;;;;;;2.88;1.80;;;;;;;10.30;100.00;100660.84;5095404;28;20395;-67
2023/12/25 12:52:44;;;;;;;2.42;1.25;;;;;;;10.32;100.00;100653.19;5092460;28;20081;-66
2023/12/25 12:55:33;;;;;;;3.80;1.65;;;;;;;10.33;100.00;100650.22;5092718;28;20492;-67